Time;durP1;ratioP1;P1;durP2;ratioP2;P2;SDS_P1;SDS_P2;PMS_P1;PMS_P2;Temp;Humidity;BMP_temperature;BMP_pressure;BME280_temperature;BME280_humidity;BME280_pressure;Samples;Min_cycle;Max_cycle;Signal;HPM_P1;HPM_P2
2023/03/28 00:01:05;;;;;;;10.55;6.70;;;2.90;99.90;;;;;;5055663;28;20340;-73
2023/03/28 00:03:53;;;;;;;12.57;7.15;;;2.90;99.90;;;;;;5069505;28;20721;-73
2023/03/28 00:06:40;;;;;;;9.68;7.47;;;2.90;99.90;;;;;;5070883;28;20208;-73
2023/03/28 00:09:25;;;;;;;15.00;10.60;;;2.90;99.90;;;;;;5059758;28;20229;-73
2023/03/28 00:12:11;;;;;;;12.27;7.57;;;2.80;99.90;;;;;;5062352;28;20209;-73
2023/03/28 00:14:57;;;;;;;13.77;8.35;;;2.90;99.90;;;;;;5070786;28;20283;-73
2023/03/28 00:17:42;;;;;;;8.35;6.68;;;2.90;99.90;;;;;;5070718;28;20765;-73
2023/03/28 00:20:30;;;;;;;7.50;6.30;;;2.90;99.90;;;;;;5066041;28;20217;-73
2023/03/28 00:23:16;;;;;;;8.40;6.85;;;2.80;99.90;;;;;;5079640;28;20209;-74
2023/03/28 00:26:07;;;;;;;10.70;5.90;;;2.70;99.90;;;;;;5057672;28;20683;-73
2023/03/28 00:28:53;;;;;;;11.63;6.00;;;2.60;99.90;;;;;;5070637;28;20337;-73
2023/03/28 00:31:39;;;;;;;9.85;6.72;;;2.70;99.90;;;;;;5057679;28;20206;-73
2023/03/28 00:34:25;;;;;;;5.65;5.00;;;2.60;99.90;;;;;;5068773;28;20569;-73
2023/03/28 00:37:16;;;;;;;8.18;5.28;;;2.60;99.90;;;;;;5070900;28;20206;-73
2023/03/28 00:40:06;;;;;;;6.82;5.35;;;2.60;99.90;;;;;;5068314;28;20308;-73
2023/03/28 00:42:52;;;;;;;6.72;5.63;;;2.60;99.90;;;;;;5067308;28;20218;-73
2023/03/28 00:45:37;;;;;;;8.00;5.03;;;2.70;99.90;;;;;;5067088;28;20213;-73
2023/03/28 00:48:23;;;;;;;10.13;5.32;;;2.70;99.90;;;;;;5056144;28;20202;-73
2023/03/28 00:51:09;;;;;;;5.30;4.07;;;2.70;99.90;;;;;;5065266;28;20430;-74
2023/03/28 00:53:58;;;;;;;7.07;4.40;;;2.70;99.90;;;;;;5068849;28;20690;-73
2023/03/28 00:56:48;;;;;;;9.20;3.50;;;2.70;99.90;;;;;;5060652;28;20324;-72
2023/03/28 00:59:36;;;;;;;9.60;4.30;;;2.70;99.90;;;;;;5066205;28;20226;-73
2023/03/28 01:02:22;;;;;;;6.95;3.30;;;2.60;99.90;;;;;;5066746;28;20312;-73
2023/03/28 01:05:09;;;;;;;6.03;3.25;;;2.60;99.90;;;;;;5069431;28;20290;-73
2023/03/28 01:07:59;;;;;;;6.35;3.30;;;2.50;99.90;;;;;;5070522;28;20200;-73
2023/03/28 01:10:47;;;;;;;4.18;3.20;;;2.50;99.90;;;;;;5064974;28;20230;-73
2023/03/28 01:13:38;;;;;;;7.50;3.03;;;2.50;99.90;;;;;;5071440;28;20213;-73
2023/03/28 01:16:23;;;;;;;6.00;3.30;;;2.50;99.90;;;;;;5073522;28;20205;-75
2023/03/28 01:19:20;;;;;;;5.65;3.30;;;2.50;99.90;;;;;;5068383;28;20907;-72
2023/03/28 01:22:30;;;;;;;6.60;3.10;;;2.50;99.90;;;;;;5068703;28;20205;-74
2023/03/28 01:25:48;;;;;;;6.30;2.50;;;2.40;99.90;;;;;;5045713;28;20229;-73
2023/03/28 01:28:55;;;;;;;5.13;2.22;;;2.50;99.90;;;;;;5070316;28;20200;-73
2023/03/28 01:32:10;;;;;;;5.45;2.05;;;2.50;99.90;;;;;;5073348;28;20300;-73
2023/03/28 01:35:25;;;;;;;8.38;3.03;;;2.40;99.90;;;;;;5061023;28;20567;-72
2023/03/28 01:38:16;;;;;;;4.85;2.08;;;2.30;99.90;;;;;;5066785;28;20203;-74
2023/03/28 01:41:10;;;;;;;4.38;2.08;;;2.30;99.90;;;;;;5061965;28;20216;-73
2023/03/28 01:44:03;;;;;;;12.20;2.72;;;2.20;99.90;;;;;;5067624;28;20227;-73
2023/03/28 01:46:57;;;;;;;7.32;2.22;;;2.20;99.90;;;;;;5062794;28;20321;-73
2023/03/28 01:49:50;;;;;;;4.55;2.53;;;2.00;99.90;;;;;;5058484;28;20237;-73
2023/03/28 01:52:41;;;;;;;4.75;2.20;;;2.00;99.90;;;;;;5072425;28;20269;-73
2023/03/28 01:55:34;;;;;;;6.72;2.35;;;1.90;99.90;;;;;;5068481;28;20210;-73
2023/03/28 01:58:28;;;;;;;7.40;2.25;;;2.00;99.90;;;;;;5069381;28;20305;-73
2023/03/28 02:01:17;;;;;;;8.40;2.45;;;2.00;99.90;;;;;;5062989;28;20203;-73
2023/03/28 02:04:08;;;;;;;6.65;3.03;;;2.00;99.90;;;;;;5065076;28;20201;-73
2023/03/28 02:06:55;;;;;;;6.20;2.13;;;2.00;99.90;;;;;;5067205;28;20716;-73
2023/03/28 02:09:44;;;;;;;2.85;2.13;;;1.90;99.90;;;;;;5063920;28;20253;-72
2023/03/28 02:12:36;;;;;;;3.13;2.15;;;2.00;99.90;;;;;;5073554;28;20215;-75
2023/03/28 02:15:24;;;;;;;5.85;2.58;;;2.00;99.90;;;;;;5071790;28;20206;-73
2023/03/28 02:18:15;;;;;;;3.80;2.60;;;1.90;99.90;;;;;;5073282;28;20208;-75
2023/03/28 02:21:06;;;;;;;8.10;2.55;;;1.90;99.90;;;;;;5070378;28;20217;-75
2023/03/28 02:23:54;;;;;;;5.30;2.72;;;1.80;99.90;;;;;;5073084;28;20565;-75
2023/03/28 02:26:40;;;;;;;8.20;2.25;;;1.90;99.90;;;;;;5073351;28;20205;-74
2023/03/28 02:29:29;;;;;;;11.48;2.95;;;1.90;99.90;;;;;;5065322;28;20295;-75
2023/03/28 02:32:15;;;;;;;4.45;2.78;;;2.00;99.90;;;;;;5073259;28;20232;-74
2023/03/28 02:35:03;;;;;;;5.40;2.90;;;2.10;99.90;;;;;;5072664;28;20279;-74
2023/03/28 02:37:55;;;;;;;4.20;2.25;;;2.10;99.90;;;;;;5071982;28;20241;-75
2023/03/28 02:40:51;;;;;;;9.07;2.55;;;2.00;99.90;;;;;;5061989;28;20300;-75
2023/03/28 02:43:52;;;;;;;10.80;2.88;;;2.00;99.90;;;;;;5072792;28;20205;-74
2023/03/28 02:46:51;;;;;;;5.63;2.80;;;1.80;99.90;;;;;;5072351;28;20209;-75
2023/03/28 02:49:47;;;;;;;4.40;2.65;;;1.80;99.90;;;;;;5065019;28;20230;-74
2023/03/28 02:52:49;;;;;;;5.90;2.58;;;1.70;99.90;;;;;;5072640;28;20205;-74
2023/03/28 02:55:40;;;;;;;4.63;2.60;;;1.80;99.90;;;;;;5072441;28;20204;-75
2023/03/28 02:58:33;;;;;;;5.43;2.38;;;1.80;99.90;;;;;;5067745;28;20206;-75
2023/03/28 03:01:19;;;;;;;8.95;2.53;;;1.80;99.90;;;;;;5073893;28;20218;-75
2023/03/28 03:04:07;;;;;;;6.50;2.90;;;1.70;99.90;;;;;;5059768;28;20742;-74
2023/03/28 03:06:53;;;;;;;9.48;2.60;;;1.70;99.90;;;;;;5071107;28;20221;-75
2023/03/28 03:09:39;;;;;;;4.10;2.30;;;1.60;99.90;;;;;;5065340;28;20239;-75
2023/03/28 03:12:25;;;;;;;5.68;2.60;;;1.50;99.90;;;;;;5068212;28;20570;-75
2023/03/28 03:15:11;;;;;;;7.88;2.63;;;1.50;99.90;;;;;;5071539;28;20609;-74
2023/03/28 03:17:57;;;;;;;3.97;2.55;;;1.50;99.90;;;;;;5071164;28;20209;-75
2023/03/28 03:20:45;;;;;;;3.67;2.17;;;1.60;99.90;;;;;;5071866;28;20221;-75
2023/03/28 03:23:30;;;;;;;8.63;2.90;;;1.50;99.90;;;;;;5060304;28;20205;-74
2023/03/28 03:26:17;;;;;;;3.15;2.10;;;1.50;99.90;;;;;;5070980;28;20209;-75
2023/03/28 03:29:02;;;;;;;7.03;2.90;;;1.60;99.90;;;;;;5068368;28;20315;-72
2023/03/28 03:31:48;;;;;;;3.75;2.67;;;1.60;99.90;;;;;;5071142;28;20233;-75
2023/03/28 03:34:35;;;;;;;6.97;2.78;;;1.60;99.90;;;;;;5070442;28;20206;-75
2023/03/28 03:37:22;;;;;;;8.38;2.83;;;1.60;99.90;;;;;;5070744;28;20209;-72
2023/03/28 03:40:09;;;;;;;4.05;2.40;;;1.30;99.90;;;;;;5062407;28;20229;-75
2023/03/28 03:42:55;;;;;;;3.50;2.60;;;1.00;99.90;;;;;;5071657;28;20208;-75
2023/03/28 03:45:40;;;;;;;3.05;2.53;;;1.00;99.90;;;;;;5071029;28;20205;-73
2023/03/28 03:48:26;;;;;;;6.15;2.45;;;1.00;99.90;;;;;;5068569;28;20216;-75
2023/03/28 03:51:12;;;;;;;5.60;2.90;;;1.10;99.90;;;;;;5071460;28;20285;-74
2023/03/28 03:53:59;;;;;;;7.40;2.50;;;1.10;99.90;;;;;;5071072;28;20200;-75
2023/03/28 03:56:45;;;;;;;5.53;2.60;;;1.10;99.90;;;;;;5071243;28;20215;-73
2023/03/28 03:59:30;;;;;;;6.20;2.42;;;1.10;99.90;;;;;;5068332;28;20306;-75
2023/03/28 04:02:16;;;;;;;4.30;2.50;;;1.10;99.90;;;;;;5062721;28;20205;-74
2023/03/28 04:05:02;;;;;;;6.03;2.72;;;1.10;99.90;;;;;;5071216;28;20629;-75
2023/03/28 04:07:47;;;;;;;6.22;3.03;;;1.10;99.90;;;;;;5069441;28;20333;-73
2023/03/28 04:10:34;;;;;;;4.57;2.53;;;1.20;99.90;;;;;;5067560;28;20251;-75
2023/03/28 04:13:20;;;;;;;4.90;2.97;;;1.20;99.90;;;;;;5058479;28;20209;-74
2023/03/28 04:16:06;;;;;;;6.38;2.65;;;1.10;99.90;;;;;;5070087;28;20230;-74
2023/03/28 04:18:52;;;;;;;3.70;2.20;;;1.00;99.90;;;;;;5061995;28;20208;-74
2023/03/28 04:21:41;;;;;;;6.70;3.10;;;1.00;99.90;;;;;;5081704;28;20290;-74
2023/03/28 04:24:27;;;;;;;5.43;2.35;;;1.00;99.90;;;;;;5058237;28;20210;-73
2023/03/28 04:27:14;;;;;;;5.15;2.60;;;1.10;99.90;;;;;;5068230;28;20201;-74
2023/03/28 04:30:00;;;;;;;7.15;2.80;;;1.10;99.90;;;;;;5078292;28;20229;-75
2023/03/28 04:32:49;;;;;;;8.48;2.80;;;1.30;99.90;;;;;;5070997;28;20279;-75
2023/03/28 04:35:35;;;;;;;9.52;3.03;;;1.30;99.90;;;;;;5069249;28;20230;-74
2023/03/28 04:38:22;;;;;;;10.88;2.90;;;1.30;99.90;;;;;;5060398;28;20203;-75
2023/03/28 04:41:08;;;;;;;5.25;2.90;;;1.10;99.90;;;;;;5059849;28;20205;-75
2023/03/28 04:43:55;;;;;;;4.60;3.15;;;1.00;99.90;;;;;;5070899;28;20293;-75
2023/03/28 04:46:41;;;;;;;5.20;2.95;;;0.90;99.90;;;;;;5070233;28;20260;-71
2023/03/28 04:49:26;;;;;;;7.38;3.05;;;0.80;99.90;;;;;;5060580;28;20244;-75
2023/03/28 04:52:12;;;;;;;6.43;3.05;;;0.70;99.90;;;;;;5069647;28;20746;-74
2023/03/28 04:54:57;;;;;;;8.82;3.38;;;0.60;99.90;;;;;;5070315;28;20200;-75
2023/03/28 04:57:43;;;;;;;7.20;3.13;;;0.60;99.90;;;;;;5066819;28;20204;-72
2023/03/28 05:00:30;;;;;;;7.90;3.55;;;0.70;99.90;;;;;;5059507;28;20233;-74
2023/03/28 05:03:18;;;;;;;5.75;2.60;;;0.80;99.90;;;;;;5063720;28;20212;-75
2023/03/28 05:06:05;;;;;;;7.05;3.25;;;0.90;99.90;;;;;;5064965;28;20676;-74
2023/03/28 05:08:51;;;;;;;6.40;2.85;;;1.00;99.90;;;;;;5056212;28;20383;-75
2023/03/28 05:11:36;;;;;;;10.13;3.80;;;1.00;99.90;;;;;;5067386;28;20229;-75
2023/03/28 05:14:22;;;;;;;4.82;3.00;;;1.00;99.90;;;;;;5070199;28;20214;-75
2023/03/28 05:17:09;;;;;;;5.30;3.33;;;0.90;99.90;;;;;;5060077;28;20210;-71
2023/03/28 05:19:55;;;;;;;9.82;2.92;;;0.80;99.90;;;;;;5059959;28;20631;-76
2023/03/28 05:22:40;;;;;;;6.72;3.83;;;0.70;99.90;;;;;;5066414;28;20347;-75
2023/03/28 05:25:26;;;;;;;13.68;3.20;;;0.60;99.90;;;;;;5069382;28;20209;-73
2023/03/28 05:28:11;;;;;;;4.43;3.20;;;0.70;99.90;;;;;;5069539;28;20201;-75
2023/03/28 05:30:57;;;;;;;8.60;3.30;;;0.80;99.90;;;;;;5062672;28;20225;-75
2023/03/28 05:33:44;;;;;;;6.35;3.25;;;0.90;99.90;;;;;;5061745;28;20334;-76
2023/03/28 05:36:30;;;;;;;5.93;2.67;;;0.80;99.90;;;;;;5066238;28;20276;-73
2023/03/28 05:39:16;;;;;;;7.10;3.00;;;0.80;99.90;;;;;;5064229;28;20224;-73
2023/03/28 05:42:02;;;;;;;11.10;3.60;;;0.70;99.90;;;;;;5067248;28;20295;-73
2023/03/28 05:44:48;;;;;;;7.28;2.83;;;0.70;99.90;;;;;;5070055;28;20204;-75
2023/03/28 05:47:33;;;;;;;5.93;2.90;;;0.80;99.90;;;;;;5069368;28;20488;-76
2023/03/28 05:50:20;;;;;;;4.05;2.88;;;0.80;99.90;;;;;;5060155;28;20229;-75
2023/03/28 05:53:06;;;;;;;8.52;3.20;;;0.90;99.90;;;;;;5073115;28;20268;-74
2023/03/28 05:55:52;;;;;;;9.75;3.33;;;1.10;99.90;;;;;;5073066;28;20292;-74
2023/03/28 05:58:39;;;;;;;7.00;3.40;;;1.30;99.90;;;;;;5060641;28;20202;-72
2023/03/28 06:01:27;;;;;;;11.70;3.55;;;1.40;99.90;;;;;;5065615;28;20202;-76
2023/03/28 06:04:13;;;;;;;11.52;3.83;;;1.40;99.90;;;;;;5064551;28;20205;-73
2023/03/28 06:07:00;;;;;;;7.03;3.53;;;1.40;99.90;;;;;;5073324;28;20210;-75
2023/03/28 06:09:46;;;;;;;13.90;4.25;;;1.20;99.90;;;;;;5066079;28;20233;-75
2023/03/28 06:12:31;;;;;;;4.57;3.25;;;1.20;99.90;;;;;;5062842;28;20226;-73
2023/03/28 06:15:17;;;;;;;6.15;3.30;;;1.30;99.90;;;;;;5072834;28;20209;-75
2023/03/28 06:18:03;;;;;;;6.63;3.25;;;1.40;99.90;;;;;;5073150;28;20214;-75
2023/03/28 06:20:48;;;;;;;11.65;3.58;;;1.50;99.90;;;;;;5070804;28;20233;-75
2023/03/28 06:23:36;;;;;;;10.02;3.88;;;1.70;99.90;;;;;;5070573;28;20200;-75
2023/03/28 06:26:21;;;;;;;6.65;3.83;;;1.80;99.90;;;;;;5066781;28;20561;-73
2023/03/28 06:29:07;;;;;;;5.10;3.50;;;1.80;99.90;;;;;;5064262;28;20232;-74
2023/03/28 06:31:53;;;;;;;7.10;3.38;;;1.90;99.90;;;;;;5067138;28;20303;-75
2023/03/28 06:34:38;;;;;;;8.07;4.20;;;2.10;99.90;;;;;;5062781;28;20205;-75
2023/03/28 06:37:23;;;;;;;7.07;4.15;;;2.20;99.90;;;;;;5065679;28;20204;-75
2023/03/28 06:40:11;;;;;;;9.30;3.72;;;2.30;99.90;;;;;;5065264;28;20342;-75
2023/03/28 06:42:57;;;;;;;9.80;4.30;;;2.50;99.90;;;;;;5067596;28;20626;-75
2023/03/28 06:45:42;;;;;;;15.48;5.32;;;2.50;99.90;;;;;;5067883;28;20393;-75
2023/03/28 06:48:30;;;;;;;8.80;4.57;;;2.60;99.90;;;;;;5067773;28;20677;-72
2023/03/28 06:51:15;;;;;;;7.78;4.40;;;2.60;99.90;;;;;;5069475;28;20201;-76
2023/03/28 06:54:01;;;;;;;8.02;5.05;;;2.60;99.90;;;;;;5066923;28;20682;-75
2023/03/28 06:56:48;;;;;;;9.50;5.10;;;2.70;99.90;;;;;;5063236;28;20207;-74
2023/03/28 06:59:33;;;;;;;11.05;5.10;;;2.80;99.90;;;;;;5066751;28;20221;-76
2023/03/28 07:02:19;;;;;;;15.65;5.20;;;2.90;99.90;;;;;;5066192;28;20244;-76
2023/03/28 07:05:05;;;;;;;13.65;5.22;;;3.10;99.90;;;;;;5062978;28;20255;-74
2023/03/28 07:07:51;;;;;;;11.48;6.25;;;3.10;99.90;;;;;;5063911;28;20699;-74
2023/03/28 07:10:38;;;;;;;10.93;5.18;;;3.20;99.90;;;;;;5061408;28;20329;-76
2023/03/28 07:13:24;;;;;;;19.88;5.65;;;3.40;99.90;;;;;;5061393;28;20271;-72
2023/03/28 07:16:13;;;;;;;11.70;6.38;;;3.40;99.90;;;;;;5064032;28;20213;-72
2023/03/28 07:18:58;;;;;;;19.00;6.28;;;3.50;99.90;;;;;;5061839;28;20230;-75
2023/03/28 07:21:44;;;;;;;10.07;6.97;;;3.60;99.90;;;;;;5062873;28;20329;-75
2023/03/28 07:24:30;;;;;;;13.10;6.28;;;3.70;99.90;;;;;;5066588;28;20202;-72
2023/03/28 07:27:16;;;;;;;10.48;6.38;;;3.80;99.90;;;;;;5065484;28;20213;-74
2023/03/28 07:30:03;;;;;;;9.65;6.45;;;3.90;99.90;;;;;;5063292;28;20618;-75
2023/03/28 07:32:49;;;;;;;12.68;5.30;;;4.00;99.90;;;;;;5066146;28;20225;-75
2023/03/28 07:35:38;;;;;;;11.25;5.20;;;4.00;99.90;;;;;;5063664;28;20219;-75
2023/03/28 07:38:24;;;;;;;9.05;4.65;;;4.20;99.90;;;;;;5063851;28;20205;-75
2023/03/28 07:41:09;;;;;;;8.82;4.28;;;4.30;99.90;;;;;;5070520;28;20334;-75
2023/03/28 07:43:55;;;;;;;6.72;4.50;;;4.20;99.90;;;;;;5060343;28;20209;-75
2023/03/28 07:46:42;;;;;;;8.70;5.10;;;4.30;99.90;;;;;;5063227;28;20272;-76
2023/03/28 07:49:27;;;;;;;5.80;3.75;;;4.40;99.90;;;;;;5063710;28;20290;-75
2023/03/28 07:52:14;;;;;;;8.68;3.90;;;4.50;99.90;;;;;;5064975;28;20218;-76
2023/03/28 07:54:59;;;;;;;12.32;4.65;;;4.60;99.90;;;;;;5065611;28;20222;-76
2023/03/28 07:57:45;;;;;;;12.32;4.28;;;4.70;99.90;;;;;;5064441;28;20880;-74
2023/03/28 08:00:32;;;;;;;9.77;4.13;;;4.80;99.90;;;;;;5066345;28;21041;-76
2023/03/28 08:03:19;;;;;;;11.95;4.25;;;5.00;99.90;;;;;;5061885;28;20557;-75
2023/03/28 08:06:06;;;;;;;9.88;4.40;;;5.10;99.90;;;;;;5067942;28;20212;-73
2023/03/28 08:08:52;;;;;;;13.13;3.95;;;5.10;98.20;;;;;;5060666;28;20206;-75
2023/03/28 08:11:40;;;;;;;10.20;4.43;;;5.10;98.40;;;;;;5081038;22;20781;-72
2023/03/28 08:14:25;;;;;;;10.35;4.05;;;5.20;99.10;;;;;;5042463;28;20273;-72
2023/03/28 08:17:11;;;;;;;8.40;4.87;;;5.30;98.40;;;;;;5040091;28;20356;-72
2023/03/28 08:19:58;;;;;;;13.18;4.30;;;5.40;97.70;;;;;;5040891;28;20450;-72
2023/03/28 08:22:44;;;;;;;14.73;4.35;;;5.40;94.80;;;;;;5043545;28;20223;-72
2023/03/28 08:25:29;;;;;;;10.88;4.20;;;5.20;94.80;;;;;;5046358;28;20588;-72
2023/03/28 08:28:15;;;;;;;11.23;3.90;;;5.10;94.60;;;;;;5040041;28;20226;-72
2023/03/28 08:31:01;;;;;;;9.95;3.55;;;5.30;95.00;;;;;;5038798;28;20263;-72
2023/03/28 08:33:47;;;;;;;10.90;3.03;;;5.40;94.60;;;;;;5041615;28;20695;-72
2023/03/28 08:36:34;;;;;;;5.28;2.85;;;5.40;92.90;;;;;;5047486;28;20202;-72
2023/03/28 08:39:20;;;;;;;10.80;3.30;;;5.50;92.10;;;;;;5038102;28;20210;-72
2023/03/28 08:42:32;;;;;;;16.90;4.15;;;5.70;92.40;;;;;;5042462;28;20231;-72
2023/03/28 08:45:39;;;;;;;10.10;3.35;;;5.90;90.70;;;;;;5041309;28;20243;-71
2023/03/28 08:48:29;;;;;;;16.08;2.42;;;6.10;89.20;;;;;;5040810;28;20314;-72
2023/03/28 08:51:22;;;;;;;16.48;3.00;;;6.30;85.50;;;;;;5044257;28;20716;-71
2023/03/28 08:54:16;;;;;;;17.37;3.17;;;6.10;80.60;;;;;;5040046;28;20696;-72
2023/03/28 08:57:04;;;;;;;9.60;2.20;;;6.00;77.70;;;;;;5040466;28;20495;-72
2023/03/28 08:59:55;;;;;;;9.43;2.53;;;5.80;77.00;;;;;;5046602;28;20588;-72
2023/03/28 09:02:42;;;;;;;11.70;2.88;;;6.00;82.10;;;;;;5045622;28;20223;-72
2023/03/28 09:05:38;;;;;;;4.53;2.10;;;6.20;81.80;;;;;;5042977;28;20866;-72
2023/03/28 09:09:00;;;;;;;10.93;2.03;;;6.40;71.90;;;;;;5039751;28;20450;-72
2023/03/28 09:11:56;;;;;;;9.03;2.37;;;6.60;68.10;;;;;;4996276;28;20485;-72
2023/03/28 09:15:05;;;;;;;16.20;2.70;;;6.70;65.00;;;;;;5040487;28;20453;-72
2023/03/28 09:18:03;;;;;;;10.87;2.07;;;6.70;64.80;;;;;;5039995;28;20531;-72
2023/03/28 09:20:53;;;;;;;12.80;2.37;;;6.60;65.30;;;;;;5045670;28;20449;-72
2023/03/28 09:24:14;;;;;;;18.83;2.30;;;6.70;66.70;;;;;;5046208;28;20426;-72
2023/03/28 09:27:06;;;;;;;6.90;2.83;;;6.70;66.50;;;;;;5046072;28;20596;-72
2023/03/28 09:29:56;;;;;;;6.80;2.30;;;6.90;64.00;;;;;;5048556;28;20450;-72
2023/03/28 09:32:42;;;;;;;10.87;2.53;;;7.10;62.10;;;;;;5049742;28;20581;-71
2023/03/28 09:35:30;;;;;;;6.60;2.30;;;7.20;58.30;;;;;;5047820;28;20436;-72
2023/03/28 09:38:21;;;;;;;12.07;1.90;;;7.00;57.80;;;;;;5045376;28;20947;-71
2023/03/28 09:41:13;;;;;;;8.90;2.30;;;6.90;57.30;;;;;;5048122;28;21058;-72
2023/03/28 09:44:02;;;;;;;7.93;1.90;;;7.00;56.50;;;;;;5042873;28;20447;-71
2023/03/28 09:46:48;;;;;;;9.03;2.10;;;7.10;55.70;;;;;;5046994;28;20520;-71
2023/03/28 09:49:34;;;;;;;6.00;1.17;;;7.30;49.90;;;;;;5044550;28;20445;-71
2023/03/28 09:52:21;;;;;;;9.57;1.73;;;7.20;41.00;;;;;;5044775;28;20532;-72
2023/03/28 09:55:16;;;;;;;8.63;2.03;;;7.50;44.90;;;;;;5048343;28;20596;-71
2023/03/28 09:58:07;;;;;;;7.53;1.70;;;7.50;47.20;;;;;;5043736;28;20532;-71
2023/03/28 10:00:55;;;;;;;7.40;1.60;;;7.50;43.30;;;;;;5045353;28;20644;-72
2023/03/28 10:03:52;;;;;;;4.77;1.60;;;7.80;45.00;;;;;;5050391;28;20517;-71
2023/03/28 10:06:39;;;;;;;8.77;1.73;;;8.10;45.50;;;;;;5044243;28;20813;-72
2023/03/28 10:09:27;;;;;;;4.23;1.83;;;7.90;39.60;;;;;;5045187;28;20445;-72
2023/03/28 10:12:21;;;;;;;15.77;1.93;;;8.10;41.90;;;;;;5047909;28;21084;-72
2023/03/28 10:15:28;;;;;;;6.90;1.93;;;8.00;36.50;;;;;;5046220;28;20457;-72
2023/03/28 10:18:19;;;;;;;8.03;2.07;;;8.30;36.40;;;;;;5046736;28;20444;-72
2023/03/28 10:21:10;;;;;;;13.13;1.93;;;8.40;39.60;;;;;;5048119;28;20449;-71
2023/03/28 10:23:59;;;;;;;8.50;2.80;;;8.50;42.30;;;;;;5048595;28;20985;-71
2023/03/28 10:26:45;;;;;;;9.57;2.80;;;8.70;42.50;;;;;;5042291;28;20470;-72
2023/03/28 10:29:31;;;;;;;8.33;3.53;;;8.80;42.60;;;;;;5048299;28;20504;-72
2023/03/28 10:32:24;;;;;;;5.33;2.40;;;9.00;43.70;;;;;;5048275;28;20461;-72
2023/03/28 10:35:22;;;;;;;7.57;2.30;;;9.00;41.20;;;;;;5045602;28;20442;-72
2023/03/28 10:38:15;;;;;;;13.17;2.17;;;8.90;40.30;;;;;;5047104;28;20449;-71
2023/03/28 10:41:03;;;;;;;9.03;2.90;;;8.90;40.30;;;;;;5047430;28;20482;-71
2023/03/28 10:43:49;;;;;;;7.67;2.30;;;8.80;40.50;;;;;;5040715;28;20438;-72
2023/03/28 10:46:39;;;;;;;6.43;2.60;;;8.60;42.40;;;;;;5045480;28;20450;-72
2023/03/28 10:49:27;;;;;;;8.80;2.90;;;8.70;40.60;;;;;;5047588;28;20441;-72
2023/03/28 10:52:25;;;;;;;9.63;3.37;;;8.90;42.70;;;;;;5040959;28;20466;-72
2023/03/28 10:55:16;;;;;;;8.57;3.80;;;8.80;41.70;;;;;;5039406;28;20449;-71
2023/03/28 10:58:07;;;;;;;14.50;3.77;;;8.90;43.30;;;;;;5043783;28;20475;-72
2023/03/28 11:01:02;;;;;;;10.10;3.60;;;9.20;42.20;;;;;;5037509;28;20427;-72
2023/03/28 11:04:07;;;;;;;8.67;4.30;;;9.50;44.20;;;;;;5040853;28;20429;-71
2023/03/28 11:06:59;;;;;;;10.37;4.30;;;9.60;39.90;;;;;;5040559;28;20547;-71
2023/03/28 11:09:55;;;;;;;14.70;4.23;;;9.20;37.60;;;;;;5046800;28;20446;-71
2023/03/28 11:12:53;;;;;;;11.23;3.97;;;9.10;38.90;;;;;;5040430;28;20679;-72
2023/03/28 11:15:47;;;;;;;9.40;3.90;;;8.80;40.00;;;;;;5045665;28;20470;-72
2023/03/28 11:18:51;;;;;;;6.13;3.70;;;8.80;38.60;;;;;;5046703;28;20486;-72
2023/03/28 11:21:42;;;;;;;9.33;4.00;;;8.90;38.30;;;;;;5052572;28;20453;-72
2023/03/28 11:24:38;;;;;;;7.93;3.70;;;9.10;35.20;;;;;;5050324;28;20530;-71
2023/03/28 11:27:31;;;;;;;7.40;3.87;;;9.20;36.20;;;;;;5051431;28;20422;-72
2023/03/28 11:30:20;;;;;;;6.57;2.80;;;9.30;34.50;;;;;;5052194;28;20435;-72
2023/03/28 11:33:11;;;;;;;8.50;2.80;;;9.30;36.40;;;;;;5050609;28;20858;-72
2023/03/28 11:36:03;;;;;;;12.53;2.73;;;9.40;33.70;;;;;;5048276;28;20423;-72
2023/03/28 11:38:53;;;;;;;8.03;2.90;;;9.60;33.40;;;;;;5051773;28;20570;-72
2023/03/28 11:41:41;;;;;;;6.77;2.37;;;9.80;30.00;;;;;;5051301;28;20514;-72
2023/03/28 11:44:31;;;;;;;17.60;2.53;;;9.70;29.90;;;;;;5049035;28;21175;-73
2023/03/28 11:47:21;;;;;;;5.20;3.10;;;9.80;29.90;;;;;;5051768;28;20538;-71
2023/03/28 11:50:15;;;;;;;6.60;1.80;;;10.00;31.60;;;;;;5049678;28;20525;-71
2023/03/28 11:53:06;;;;;;;6.20;2.43;;;10.00;29.10;;;;;;5044750;28;20481;-71
2023/03/28 11:56:01;;;;;;;9.07;2.40;;;10.30;30.60;;;;;;5044780;28;20508;-71
2023/03/28 11:58:50;;;;;;;10.20;2.67;;;10.60;27.00;;;;;;5040223;28;20539;-72
2023/03/28 12:01:41;;;;;;;6.10;2.43;;;10.80;26.70;;;;;;5042129;28;20642;-71
2023/03/28 12:04:30;;;;;;;6.67;2.67;;;11.00;26.60;;;;;;5049099;28;20478;-71
2023/03/28 12:07:19;;;;;;;8.00;2.30;;;11.00;26.50;;;;;;5037034;28;20943;-71
2023/03/28 12:10:14;;;;;;;8.60;3.33;;;10.60;25.70;;;;;;5040881;28;20551;-71
2023/03/28 12:13:08;;;;;;;3.30;1.70;;;10.50;26.30;;;;;;5043296;28;20471;-71
2023/03/28 12:15:58;;;;;;;4.23;2.13;;;10.30;26.40;;;;;;5038889;28;20943;-71
2023/03/28 12:18:48;;;;;;;4.67;1.70;;;10.30;25.60;;;;;;5046790;28;20442;-71
2023/03/28 12:21:37;;;;;;;3.60;1.70;;;10.50;24.20;;;;;;5043518;28;20617;-71
2023/03/28 12:24:28;;;;;;;2.60;1.53;;;10.80;23.60;;;;;;5039842;28;20867;-71
2023/03/28 12:27:22;;;;;;;2.63;1.30;;;11.10;26.40;;;;;;5046656;28;20570;-71
2023/03/28 12:30:19;;;;;;;3.67;1.40;;;11.40;24.30;;;;;;5045834;28;20431;-71
2023/03/28 12:33:15;;;;;;;5.87;1.80;;;11.60;22.90;;;;;;5036457;28;20490;-72
2023/03/28 12:36:12;;;;;;;8.10;1.77;;;11.70;23.00;;;;;;5042463;28;20460;-72
2023/03/28 12:39:03;;;;;;;8.03;1.97;;;11.60;22.70;;;;;;5041573;28;20593;-71
2023/03/28 12:41:49;;;;;;;7.53;2.03;;;11.30;20.50;;;;;;5038288;28;20463;-71
2023/03/28 12:44:42;;;;;;;5.77;2.00;;;11.30;21.40;;;;;;5041384;28;20496;-72
2023/03/28 12:47:32;;;;;;;3.70;1.67;;;11.10;20.70;;;;;;5042095;28;20492;-71
2023/03/28 12:50:23;;;;;;;6.87;1.90;;;11.30;21.70;;;;;;5041679;28;20437;-71
2023/03/28 12:53:13;;;;;;;5.33;1.63;;;11.40;22.70;;;;;;5046314;28;20537;-71
2023/03/28 12:55:59;;;;;;;14.83;2.13;;;11.40;19.80;;;;;;5045266;28;20534;-71
2023/03/28 12:58:47;;;;;;;6.27;2.00;;;11.60;21.50;;;;;;5038095;28;20540;-71
2023/03/28 13:01:43;;;;;;;6.20;1.73;;;11.80;19.70;;;;;;5043043;28;20470;-71
2023/03/28 13:04:32;;;;;;;9.77;2.03;;;11.80;20.40;;;;;;5038812;28;20580;-71
2023/03/28 13:07:23;;;;;;;5.57;1.87;;;11.80;20.90;;;;;;5039702;28;20422;-71
2023/03/28 13:10:19;;;;;;;8.10;2.63;;;11.90;22.40;;;;;;5040990;28;20813;-72
2023/03/28 13:13:23;;;;;;;9.17;2.03;;;11.80;20.90;;;;;;5039439;28;20480;-72
2023/03/28 13:16:15;;;;;;;4.73;2.03;;;11.40;20.50;;;;;;5039642;28;20465;-71
2023/03/28 13:19:11;;;;;;;8.07;2.00;;;11.20;21.40;;;;;;5039801;28;20934;-71
2023/03/28 13:21:59;;;;;;;4.83;2.40;;;11.40;20.90;;;;;;5039824;28;20517;-72
2023/03/28 13:24:44;;;;;;;13.30;2.50;;;11.40;20.90;;;;;;5045241;28;20446;-72
2023/03/28 13:27:32;;;;;;;12.67;2.20;;;11.70;19.60;;;;;;5038960;28;20499;-72
2023/03/28 13:30:19;;;;;;;3.60;1.50;;;11.90;20.90;;;;;;5040618;28;20475;-72
2023/03/28 13:33:15;;;;;;;5.33;2.37;;;11.80;19.70;;;;;;5038266;28;20465;-73
2023/03/28 13:36:19;;;;;;;4.97;2.30;;;11.70;21.80;;;;;;5046377;28;20873;-72
2023/03/28 13:39:20;;;;;;;6.70;3.43;;;12.20;20.60;;;;;;5049678;28;20507;-72
2023/03/28 13:42:26;;;;;;;4.43;1.73;;;12.20;19.40;;;;;;5043034;28;20472;-72
2023/03/28 13:45:21;;;;;;;5.30;2.13;;;12.50;22.50;;;;;;5045278;28;20404;-72
2023/03/28 13:48:10;;;;;;;8.90;1.90;;;12.50;20.60;;;;;;5050633;28;20925;-72
2023/03/28 13:50:59;;;;;;;4.83;1.60;;;12.60;19.60;;;;;;5044627;28;20450;-72
2023/03/28 13:53:47;;;;;;;7.17;1.70;;;12.60;18.30;;;;;;5044436;28;20466;-72
2023/03/28 13:56:34;;;;;;;3.90;2.07;;;12.60;19.20;;;;;;5036846;28;20536;-73
2023/03/28 13:59:25;;;;;;;5.20;1.60;;;12.30;19.00;;;;;;5049123;28;20482;-72
2023/03/28 14:02:17;;;;;;;6.50;1.60;;;11.70;17.40;;;;;;5046076;28;20574;-72
2023/03/28 14:05:20;;;;;;;3.20;1.73;;;11.30;20.40;;;;;;5047188;28;20391;-72
2023/03/28 14:08:23;;;;;;;8.67;2.57;;;11.10;19.70;;;;;;5049062;28;20794;-72
2023/03/28 14:11:10;;;;;;;5.40;2.43;;;10.90;19.60;;;;;;5048765;28;20570;-73
2023/03/28 14:14:04;;;;;;;5.73;1.90;;;10.40;20.00;;;;;;5063371;22;20486;-72
2023/03/28 14:16:51;;;;;;;2.97;1.80;;;10.30;21.40;;;;;;5033023;28;20438;-73
2023/03/28 14:19:42;;;;;;;6.63;1.87;;;10.30;22.80;;;;;;5033446;28;20426;-73
2023/03/28 14:22:31;;;;;;;5.70;2.07;;;10.30;21.90;;;;;;5029750;28;20807;-73
2023/03/28 14:25:17;;;;;;;7.87;2.10;;;10.10;20.80;;;;;;5052893;28;20430;-73
2023/03/28 14:28:08;;;;;;;5.40;2.03;;;10.20;21.60;;;;;;5053076;28;20538;-73
2023/03/28 14:30:54;;;;;;;6.17;2.10;;;10.30;21.70;;;;;;5046331;28;21053;-74
2023/03/28 14:33:40;;;;;;;9.80;1.90;;;10.50;21.40;;;;;;5050799;28;20838;-72
2023/03/28 14:36:30;;;;;;;5.40;1.73;;;10.70;21.30;;;;;;5052836;28;20446;-73
2023/03/28 14:39:18;;;;;;;6.70;1.90;;;11.10;22.60;;;;;;5034974;28;20449;-72
2023/03/28 14:42:07;;;;;;;4.70;2.00;;;11.50;20.20;;;;;;5042521;28;21017;-73
2023/03/28 14:44:54;;;;;;;6.00;1.83;;;11.70;20.80;;;;;;5052411;28;20426;-73
2023/03/28 14:47:41;;;;;;;5.67;1.53;;;11.80;20.30;;;;;;5053105;28;20432;-73
2023/03/28 14:50:31;;;;;;;10.53;2.00;;;11.90;19.70;;;;;;5049514;28;20466;-73